Página principal
METAR-TAF:

METAR-TAF

Aeroportos :

Dubai, Emirados Árabes Unidos

Aeroporto Internacional de Dubai

latitude: 25-15-10N, longitude: 055-21-52E, altura: 8 m

Observação actual do tempo

O boletim foi feito há 10 minutos, às 08:00 UTC
Vento 4 kt com direcção variável
Temperatura 41°C
Humidade 25%
Pressão 1000 hPa
Visibilidade: 8000 m

METAR: OMDB 210800Z VRB04KT 8000 NSC 41/17 Q1000 BECMG 34012KT

Hora: 12:10 (08:10 UTC)

Previsão

O boletim foi feito há 3 horas e 11 minutos, às 04:59 UTC
Previsão válida de 21 às 06 UTC a 22 às 12 UTC
Vento 9 kt de su-sudoeste
Visibilidade: 8000 m
Tornando-se
de 21 às 08 UTC a 21 às 10 UTC
Vento 12 kt de norte
Tornando-se
de 21 às 15 UTC a 21 às 17 UTC
Vento 5 kt de este
Tornando-se
de 22 às 08 UTC a 22 às 10 UTC
Vento 12 kt de nor-noroeste

TAF: OMDB 210459Z 2106/2212 20009KT 8000 NSC BECMG 2108/2110 35012KT BECMG 2115/2117 09005KT BECMG 2208/2210 33012KT

Observações e previsões do tempo de mais de 4000 aeroportos (mensagens METAR e TAF).

As estações disponíveis são os pontos amarelos e vermelhos sobre o mapa.

Mova o rato sobre o mapa para ver o nome da estação.

Depois clique no ponto para visualizar as observações e previsões meteorológicas.

Para alterar o mapa : clique nos botões verdes com uma cruz preta para aumentar o zoom; no botão verde com uma pitada de zoom; ou nas setas verdes para mapas adjacentes.


METAR-TAF: